Whitewood, VA (24657)

3:54 AM EDT on June 03, 2015 (GMT -0400)
Jewell Ridge | | Change Station
CLOSE
Current Station
Personal Weather Station
Location: Jewell Ridge, VA
Elevation: 2986 ft
Nearby Weather Stations

Elev 2986 ft 37.20 °N, 81.78 °W | Updated 9 minutes ago

Overcast
Overcast
56.1 °F
Feels Like 56.1 °F
N
1.7
Wind Variable Wind from East

Today
High -- | Low -- °F
--% Chance of Precip.
Yesterday
High -- | Low -- °F
Precip. -- in
6:08 AM 8:43 PM
Full, 100% visible
Pressure 30.07 in
Visibility 0.2 miles
Clouds Overcast 300 ft
Dew Point 55 °F
Humidity 96%
Rainfall 0.00 in
Snow Depth Not available.
UV 0 out of 12
Pollen .70 out of 12
Air Quality Not available.
Flu Activity Sporadic
METAR KJFZ 030735Z AUTO 03003KT M1/4SM FG OVC003 15/15 A3007 RMK AO2 T01480148

More Conditions Fewer Conditions

Pressure 30.07 in
Visibility 0.2 miles
Clouds Overcast 300 ft
Dew Point 55 °F
Humidity 96%
Rainfall 0.00 in
Snow Depth Not available.
UV 0 out of 12
Pollen .70 out of 12
Air Quality Not available.
Flu Activity Sporadic
METAR KJFZ 030735Z AUTO 03003KT M1/4SM FG OVC003 15/15 A3007 RMK AO2 T01480148

More Conditions Fewer Conditions

10-Day Weather Forecast

×

Almanac

Astronomy

Jun. 03, 2015 Rise Set
Actual Time
Civil Twilight
Nautical Twilight
Astronomical Twilight
Moon
Length of Visible Light
Length of Day
Tomorrow will be .
, % of the Moon is Illuminated

Today's Extremes

State Highs State Lows

Community

WunderPhotos

Upload Photos

1,826,187 photos uploaded!

WunderBlogs® & News

Nearby

Air Quality

  Air Quality AQ Index Pollutant
Not available.

Snow Depth

Station Depth Elevation

Earthquake Activity

City Distance Mag. Time & Date
Minimum magnitude displayed is 2.5.

Coastal Water Temperatures

Place Temperature

Stations

Nearby Weather Stations

Station Location Temp. Windchill Dew Point Humidity Wind Precip. Elev Updated Type